.
WxDataArchive / Data Records for 2012-09-27
2012-09-26 September 2012 2012-09-28

Data Records for Thursday, 27 September 2012

Time	Temp	Chill	HIndex	Humid	Dewpt	 Wind 	HiWind	WindDir	Rain 	Barom 
-----	----	-----	------	-----	-----	------	------	-------	-----	----- 
00:00	59.8	59.8	59.8	94	58.1	0	0	---	0.00	30.091 
00:05	59.8	59.8	59.8	94	58.1	0	0	---	0.00	30.091 
00:10	59.9	59.9	59.9	94	58.2	0	1	315	0.00	30.091 
00:15	60.1	60.1	60.1	94	58.4	0	1	315	0.00	30.093 
00:20	60.1	60.1	60.1	94	58.4	0	1	315	0.00	30.093 
00:25	59.8	59.8	59.8	94	58.1	0	1	315	0.00	30.093 
00:30	59.3	59.3	59.3	94	57.6	0	0	---	0.00	30.103 
00:35	58.9	58.9	58.9	93	56.9	0	0	---	0.00	30.103 
00:40	58.4	58.4	58.4	93	56.4	0	0	---	0.00	30.103 
00:45	58.0	58.0	58.0	93	56.0	0	0	---	0.00	30.095 
00:50	57.6	57.6	57.6	93	55.6	0	1	315	0.00	30.095 
00:55	57.3	57.3	57.3	92	55.0	0	1	315	0.00	30.095 
01:00	57.0	57.0	57.0	92	54.7	0	1	315	0.00	30.102 
01:05	56.9	56.9	56.9	92	54.6	0	0	---	0.00	30.102 
01:10	56.6	56.6	56.6	91	54.0	0	0	---	0.00	30.102 
01:15	56.5	56.5	56.5	91	53.9	0	0	---	0.00	30.105 
01:20	56.3	56.3	56.3	90	53.4	0	0	---	0.00	30.105 
01:25	56.2	56.2	56.2	89	53.0	0	0	---	0.00	30.105 
01:30	56.2	56.2	56.2	88	52.7	0	1	315	0.00	30.101 
01:35	56.2	56.2	56.2	88	52.7	0	1	315	0.00	30.101 
01:40	56.3	56.3	56.3	87	52.5	0	3	315	0.00	30.101 
01:45	56.5	56.5	56.5	86	52.4	0	0	---	0.00	30.107 
01:50	56.6	56.6	56.6	86	52.5	0	1	315	0.00	30.107 
01:55	56.6	56.6	56.6	85	52.1	0	0	---	0.00	30.107 
02:00	56.7	56.7	56.7	85	52.2	0	0	---	0.00	30.101 
02:05	56.6	56.6	56.6	85	52.1	0	0	---	0.00	30.101 
02:10	56.6	56.6	56.6	85	52.1	0	1	315	0.00	30.101 
02:15	56.6	56.6	56.6	85	52.1	0	0	---	0.00	30.097 
02:20	56.5	56.5	56.5	85	52.0	0	0	---	0.00	30.097 
02:25	56.5	56.5	56.5	85	52.0	0	0	---	0.00	30.097 
02:30	56.6	56.6	56.6	86	52.5	0	0	---	0.00	30.098 
02:35	56.7	56.7	56.7	87	52.9	0	0	---	0.00	30.098 
02:40	56.9	56.9	56.9	88	53.4	0	1	315	0.00	30.098 
02:45	57.0	57.0	57.0	88	53.5	0	1	315	0.00	30.098 
02:50	57.3	57.3	57.3	89	54.1	0	1	315	0.00	30.098 
02:55	57.5	57.5	57.5	90	54.6	0	3	315	0.00	30.098 
03:00	57.8	57.8	57.8	90	54.9	0	2	315	0.00	30.093 
03:05	58.0	58.0	58.0	91	55.4	1	5	135	0.00	30.093 
03:10	58.1	58.1	58.1	91	55.5	1	3	135	0.00	30.093 
03:15	58.1	58.1	58.1	91	55.5	1	3	112	0.00	30.092 
03:20	58.1	58.1	58.1	92	55.8	0	2	68	0.00	30.092 
03:25	58.1	58.1	58.1	92	55.8	0	2	68	0.00	30.092 
03:30	58.1	58.1	58.1	92	55.8	1	4	68	0.00	30.096 
03:35	58.0	58.0	58.0	91	55.4	1	4	112	0.00	30.096 
03:40	57.6	57.6	57.6	91	55.0	2	6	68	0.00	30.096 
03:45	57.5	57.5	57.5	91	54.9	1	4	68	0.00	30.100 
03:50	57.5	57.5	57.5	90	54.6	1	4	68	0.00	30.100 
03:55	57.3	57.3	57.3	90	54.4	1	3	68	0.00	30.100 
04:00	57.2	57.2	57.2	90	54.3	1	4	112	0.00	30.104 
04:05	57.0	57.0	57.0	89	53.8	1	4	112	0.00	30.104 
04:10	57.0	57.0	57.0	89	53.8	1	3	112	0.00	30.104 
04:15	56.9	56.9	56.9	89	53.7	0	3	112	0.00	30.099 
04:20	56.7	56.7	56.7	88	53.2	1	4	112	0.00	30.099 
04:25	56.6	56.6	56.6	88	53.1	1	5	90	0.00	30.099 
04:30	56.5	56.5	56.5	88	53.0	1	4	90	0.00	30.099 
04:35	56.3	56.3	56.3	87	52.5	1	5	135	0.00	30.099 
04:40	56.2	56.2	56.2	86	52.1	2	6	90	0.00	30.099 
04:45	56.0	56.0	56.0	86	51.9	1	3	90	0.00	30.100 
04:50	55.9	55.9	55.9	85	51.5	2	5	90	0.00	30.100 
04:55	55.9	55.9	55.9	85	51.5	0	2	90	0.00	30.100 
05:00	55.7	55.7	55.7	84	50.9	1	4	90	0.00	30.106 
05:05	55.6	55.6	55.6	83	50.5	1	4	90	0.00	30.106 
05:10	55.6	55.6	55.6	83	50.5	1	7	90	0.00	30.106 
05:15	55.4	55.4	55.4	83	50.3	0	1	90	0.00	30.112 
05:20	55.4	55.4	55.4	83	50.3	0	2	90	0.00	30.112 
05:25	55.4	55.4	55.4	82	50.0	1	3	90	0.00	30.112 
05:30	55.3	55.3	55.3	82	49.9	1	5	90	0.00	30.116 
05:35	55.3	55.3	55.3	82	49.9	1	3	90	0.00	30.116 
05:40	55.3	55.3	55.3	81	49.6	1	5	90	0.00	30.116 
05:45	55.1	55.1	55.1	81	49.4	1	3	90	0.00	30.114 
05:50	55.1	55.1	55.1	81	49.4	0	1	90	0.00	30.114 
05:55	54.8	54.8	54.8	81	49.1	0	2	90	0.00	30.114 
06:00	54.7	54.7	54.7	81	49.0	1	4	112	0.00	30.121 
06:05	54.7	54.7	54.7	81	49.0	1	4	112	0.00	30.121 
06:10	54.7	54.7	54.7	81	49.0	1	3	112	0.00	30.121 
06:15	54.7	54.7	54.7	81	49.0	1	3	112	0.00	30.127 
06:20	54.5	54.5	54.5	80	48.5	1	3	112	0.00	30.127 
06:25	54.4	54.4	54.4	81	48.7	1	4	112	0.00	30.127 
06:30	54.2	54.2	54.2	81	48.5	0	2	112	0.00	30.132 
06:35	54.2	54.2	54.2	81	48.5	0	3	112	0.00	30.132 
06:40	54.2	54.2	54.2	81	48.5	1	5	112	0.00	30.132 
06:45	54.1	54.1	54.1	81	48.4	1	4	90	0.00	30.132 
06:50	54.1	54.1	54.1	81	48.4	0	2	90	0.00	30.132 
06:55	53.9	53.9	53.9	81	48.2	1	4	90	0.00	30.132 
07:00	53.9	53.9	53.9	81	48.2	0	1	90	0.00	30.133 
07:05	53.9	53.9	53.9	81	48.2	1	3	90	0.00	30.133 
07:10	53.9	53.9	53.9	81	48.2	1	3	90	0.00	30.133 
07:15	53.9	53.9	53.9	81	48.2	0	3	90	0.00	30.134 
07:20	53.9	53.9	53.9	81	48.2	0	1	90	0.00	30.134 
07:25	53.8	53.8	53.8	81	48.1	0	2	90	0.00	30.134 
07:30	53.9	53.9	53.9	81	48.2	0	2	90	0.00	30.139 
07:35	53.9	53.9	53.9	81	48.2	0	2	90	0.00	30.139 
07:40	53.9	53.9	53.9	81	48.2	0	1	90	0.00	30.139 
07:45	53.9	53.9	53.9	81	48.2	0	2	90	0.00	30.140 
07:50	53.9	53.9	53.9	81	48.2	0	3	90	0.00	30.140 
07:55	53.9	53.9	53.9	81	48.2	0	2	90	0.00	30.140 
08:00	53.9	53.9	53.9	81	48.2	1	4	90	0.00	30.141 
08:05	54.1	54.1	54.1	80	48.1	1	4	112	0.00	30.141 
08:10	54.1	54.1	54.1	81	48.4	1	3	112	0.00	30.141 
08:15	54.2	54.2	54.2	81	48.5	1	4	90	0.00	30.147 
08:20	54.2	54.2	54.2	81	48.5	0	2	90	0.00	30.147 
08:25	54.4	54.4	54.4	81	48.7	0	2	90	0.00	30.147 
08:30	54.5	54.5	54.5	80	48.5	1	4	90	0.00	30.148 
08:35	54.7	54.7	54.7	80	48.7	1	4	90	0.00	30.148 
08:40	54.8	54.8	54.8	80	48.7	1	4	90	0.00	30.148 
08:45	55.0	55.0	55.0	80	48.9	1	6	112	0.00	30.146 
08:50	55.1	55.1	55.1	80	49.0	1	4	112	0.00	30.146 
08:55	55.1	55.1	55.1	80	49.0	2	5	112	0.00	30.146 
09:00	55.3	55.3	55.3	80	49.2	2	5	90	0.00	30.145 
09:05	55.4	55.4	55.4	80	49.3	2	6	90	0.00	30.145 
09:10	55.4	55.4	55.4	80	49.3	1	4	90	0.00	30.145 
09:15	55.6	55.6	55.6	80	49.5	1	5	90	0.00	30.147 
09:20	55.7	55.7	55.7	80	49.6	2	5	90	0.00	30.147 
09:25	55.9	55.9	55.9	80	49.8	3	7	90	0.00	30.147 
09:30	56.0	56.0	56.0	80	49.9	1	5	112	0.00	30.149 
09:35	56.2	56.2	56.2	80	50.1	2	5	112	0.00	30.149 
09:40	56.3	56.3	56.3	80	50.2	1	3	90	0.00	30.149 
09:45	56.5	56.5	56.5	80	50.4	1	4	68	0.00	30.149 
09:50	56.7	56.7	56.7	80	50.6	2	4	90	0.00	30.149 
09:55	57.0	57.0	57.0	79	50.5	3	9	90	0.00	30.149 
10:00	57.3	57.3	57.3	79	50.8	2	7	90	0.00	30.159 
10:05	57.6	57.6	57.6	78	50.8	3	10	90	0.00	30.159 
10:10	57.8	57.8	57.8	78	51.0	1	5	90	0.00	30.159 
10:15	57.8	57.8	57.8	78	51.0	2	6	90	0.00	30.158 
10:20	57.8	57.8	57.8	78	51.0	3	7	90	0.00	30.158 
10:25	57.8	57.8	57.8	78	51.0	2	10	112	0.00	30.158 
10:30	58.0	58.0	58.0	79	51.5	1	5	90	0.00	30.159 
10:35	58.0	58.0	58.0	79	51.5	1	4	90	0.00	30.159 
10:40	58.1	58.1	58.1	79	51.6	1	6	90	0.00	30.159 
10:45	58.3	58.3	58.3	79	51.8	1	4	112	0.00	30.160 
10:50	58.4	58.4	58.4	79	51.9	2	5	90	0.00	30.160 
10:55	58.9	58.9	58.9	79	52.4	1	4	90	0.00	30.160 
11:00	59.8	59.8	59.8	78	52.9	2	5	90	0.00	30.154 
11:05	60.7	60.7	60.7	75	52.7	4	8	90	0.00	30.154 
11:10	61.5	61.5	61.5	73	52.8	3	9	112	0.00	30.154 
11:15	61.5	61.5	61.5	74	53.1	3	10	90	0.00	30.152 
11:20	61.8	61.8	61.8	74	53.4	2	9	90	0.00	30.152 
11:25	62.0	62.0	62.0	73	53.2	2	7	90	0.00	30.152 
11:30	61.8	61.8	61.8	73	53.0	2	5	68	0.00	30.154 
11:35	62.3	62.3	62.3	73	53.5	3	5	90	0.00	30.154 
11:40	63.1	63.1	63.1	72	53.9	3	7	112	0.00	30.154 
11:45	63.1	63.1	63.1	71	53.5	4	7	90	0.00	30.153 
11:50	62.6	62.6	62.6	72	53.4	3	6	90	0.00	30.153 
11:55	62.3	62.3	62.3	73	53.5	2	4	68	0.00	30.153 
12:00	62.1	62.1	62.1	74	53.7	2	9	90	0.00	30.149 
12:05	62.3	62.3	62.3	73	53.5	3	7	90	0.00	30.149 
12:10	62.6	62.6	62.6	74	54.2	2	5	90	0.00	30.149 
12:15	63.2	63.2	63.2	73	54.4	3	7	112	0.00	30.157 
12:20	63.9	63.9	63.9	73	55.1	2	7	112	0.00	30.157 
12:25	64.3	64.3	64.3	72	55.1	2	6	112	0.00	30.157 
12:30	64.8	64.8	64.8	69	54.4	3	9	90	0.00	30.152 
12:35	65.3	65.3	65.3	68	54.5	2	6	90	0.00	30.152 
12:40	65.8	65.8	65.8	69	55.3	2	7	90	0.00	30.152 
12:45	66.0	66.0	66.0	68	55.1	3	6	112	0.00	30.147 
12:50	66.1	66.1	66.1	69	55.6	2	6	68	0.00	30.147 
12:55	66.3	66.3	66.3	66	54.6	3	9	90	0.00	30.147 
13:00	66.3	66.3	66.3	68	55.4	2	6	68	0.00	30.144 
13:05	66.1	66.1	66.1	66	54.4	3	7	90	0.00	30.144 
13:10	65.6	65.6	65.6	68	54.7	3	6	90	0.00	30.144 
13:15	65.5	65.5	65.5	68	54.7	2	5	90	0.00	30.144 
13:20	65.5	65.5	65.5	68	54.7	3	6	90	0.00	30.144 
13:25	65.8	65.8	65.8	69	55.3	2	7	90	0.00	30.144 
13:30	66.8	66.8	66.8	66	55.1	2	7	90	0.00	30.141 
13:35	67.3	67.3	67.3	65	55.1	3	9	90	0.00	30.141 
13:40	67.8	67.8	67.8	64	55.2	2	9	112	0.00	30.141 
13:45	68.1	68.1	68.1	65	55.9	2	6	112	0.00	30.135 
13:50	68.1	68.1	68.1	62	54.6	3	7	112	0.00	30.135 
13:55	67.8	67.8	67.8	63	54.7	3	9	90	0.00	30.135 
14:00	67.8	67.8	67.8	63	54.7	3	7	90	0.00	30.127 
14:05	68.3	68.3	68.3	63	55.2	2	5	112	0.00	30.127 
14:10	68.6	68.6	68.6	61	54.6	3	11	112	0.00	30.127 
14:15	68.9	68.9	68.9	60	54.4	2	5	112	0.00	30.122 
14:20	69.1	69.1	69.1	60	54.6	3	7	90	0.00	30.122 
14:25	69.1	69.1	69.1	60	54.6	3	8	112	0.00	30.122 
14:30	69.1	69.1	69.1	58	53.7	2	6	112	0.00	30.115 
14:35	69.3	69.3	69.3	59	54.3	2	5	112	0.00	30.115 
14:40	69.3	69.3	69.3	57	53.4	3	8	90	0.00	30.115 
14:45	69.3	69.3	69.3	58	53.9	3	7	90	0.00	30.112 
14:50	68.9	68.9	68.9	58	53.5	3	6	90	0.00	30.112 
14:55	68.9	68.9	68.9	60	54.4	2	5	90	0.00	30.112 
15:00	69.3	69.3	69.3	58	53.9	2	6	90	0.00	30.110 
15:05	68.9	68.9	68.9	57	53.0	5	11	90	0.00	30.110 
15:10	68.4	68.4	68.4	59	53.5	3	7	90	0.00	30.110 
15:15	68.3	68.3	68.3	57	52.5	2	6	90	0.00	30.111 
15:20	68.3	68.3	68.3	58	52.9	3	6	90	0.00	30.111 
15:25	68.4	68.4	68.4	59	53.5	2	5	90	0.00	30.111 
15:30	68.6	68.6	68.6	58	53.2	2	7	112	0.00	30.110 
15:35	68.6	68.6	68.6	58	53.2	2	4	68	0.00	30.110 
15:40	68.4	68.4	68.4	58	53.0	2	6	112	0.00	30.110 
15:45	68.3	68.3	68.3	57	52.5	2	5	112	0.00	30.113 
15:50	68.4	68.4	68.4	56	52.1	4	10	90	0.00	30.113 
15:55	68.3	68.3	68.3	57	52.5	3	7	112	0.00	30.113 
16:00	68.1	68.1	68.1	58	52.8	2	5	68	0.00	30.111 
16:05	68.3	68.3	68.3	58	52.9	2	6	68	0.00	30.111 
16:10	68.1	68.1	68.1	57	52.3	2	5	68	0.00	30.111 
16:15	67.8	67.8	67.8	57	52.0	2	5	90	0.00	30.113 
16:20	67.8	67.8	67.8	57	52.0	1	5	90	0.00	30.113 
16:25	68.3	68.3	68.3	59	53.4	1	4	90	0.00	30.113 
16:30	68.6	68.6	68.6	56	52.3	3	7	90	0.00	30.117 
16:35	68.8	68.8	68.8	57	52.9	1	4	90	0.00	30.117 
16:40	68.8	68.8	68.8	56	52.5	1	3	90	0.00	30.117 
16:45	68.8	68.8	68.8	57	52.9	2	5	90	0.00	30.118 
16:50	68.8	68.8	68.8	57	52.9	2	6	90	0.00	30.118 
16:55	68.6	68.6	68.6	55	51.8	3	8	90	0.00	30.118 
17:00	68.4	68.4	68.4	55	51.6	2	6	90	0.00	30.113 
17:05	68.4	68.4	68.4	55	51.6	3	5	90	0.00	30.113 
17:10	68.3	68.3	68.3	54	51.0	3	7	68	0.00	30.113 
17:15	68.1	68.1	68.1	56	51.8	2	6	112	0.00	30.114 
17:20	68.1	68.1	68.1	54	50.8	2	6	90	0.00	30.114 
17:25	68.1	68.1	68.1	54	50.8	2	4	68	0.00	30.114 
17:30	68.1	68.1	68.1	54	50.8	3	6	68	0.00	30.112 
17:35	67.9	67.9	67.9	55	51.1	3	5	68	0.00	30.112 
17:40	67.8	67.8	67.8	54	50.5	3	9	90	0.00	30.112 
17:45	67.6	67.6	67.6	55	50.8	3	10	90	0.00	30.112 
17:50	67.3	67.3	67.3	55	50.6	3	7	68	0.00	30.112 
17:55	67.1	67.1	67.1	56	50.9	3	7	90	0.00	30.112 
18:00	66.9	66.9	66.9	56	50.7	2	6	90	0.00	30.105 
18:05	66.6	66.6	66.6	56	50.4	2	4	90	0.00	30.105 
18:10	66.4	66.4	66.4	55	49.7	2	6	90	0.00	30.105 
18:15	66.3	66.3	66.3	56	50.1	2	5	90	0.00	30.105 
18:20	66.1	66.1	66.1	55	49.5	2	5	90	0.00	30.105 
18:25	66.1	66.1	66.1	55	49.5	2	5	68	0.00	30.105 
18:30	66.0	66.0	66.0	55	49.4	2	7	90	0.00	30.104 
18:35	65.8	65.8	65.8	55	49.2	3	7	90	0.00	30.104 
18:40	65.6	65.6	65.6	56	49.5	2	5	90	0.00	30.104 
18:45	65.5	65.5	65.5	57	49.9	2	5	112	0.00	30.113 
18:50	65.2	65.2	65.2	58	50.0	2	4	90	0.00	30.113 
18:55	65.0	65.0	65.0	59	50.3	1	3	90	0.00	30.113 
19:00	64.7	64.7	64.7	60	50.5	1	4	90	0.00	30.116 
19:05	64.3	64.3	64.3	60	50.1	2	5	90	0.00	30.116 
19:10	64.0	64.0	64.0	62	50.7	0	2	68	0.00	30.116 
19:15	63.7	63.7	63.7	63	50.9	0	1	68	0.00	30.115 
19:20	63.4	63.4	63.4	64	51.0	0	1	68	0.00	30.115 
19:25	63.1	63.1	63.1	64	50.7	0	1	68	0.00	30.115 
19:30	62.7	62.7	62.7	65	50.8	0	0	---	0.00	30.118 
19:35	62.4	62.4	62.4	66	50.9	0	2	68	0.00	30.118 
19:40	62.1	62.1	62.1	66	50.6	0	2	68	0.00	30.118 
19:45	62.0	62.0	62.0	67	50.9	0	2	68	0.00	30.120 
19:50	61.6	61.6	61.6	67	50.5	1	2	68	0.00	30.120 
19:55	61.5	61.5	61.5	67	50.4	1	5	68	0.00	30.120 
20:00	61.3	61.3	61.3	66	49.8	1	4	68	0.00	30.121 
20:05	61.2	61.2	61.2	66	49.7	1	5	68	0.00	30.121 
20:10	61.0	61.0	61.0	66	49.6	1	2	68	0.00	30.121 
20:15	60.9	60.9	60.9	67	49.9	0	3	68	0.00	30.127 
20:20	60.7	60.7	60.7	67	49.7	0	4	68	0.00	30.127 
20:25	60.5	60.5	60.5	67	49.5	0	3	68	0.00	30.127 
20:30	60.2	60.2	60.2	68	49.6	0	1	68	0.00	30.138 
20:35	60.1	60.1	60.1	69	49.9	0	1	68	0.00	30.138 
20:40	59.9	59.9	59.9	69	49.7	0	3	68	0.00	30.138 
20:45	59.6	59.6	59.6	70	49.8	0	1	68	0.00	30.149 
20:50	59.5	59.5	59.5	70	49.7	0	1	68	0.00	30.149 
20:55	59.3	59.3	59.3	71	49.9	0	2	68	0.00	30.149 
21:00	59.0	59.0	59.0	72	50.0	0	1	68	0.00	30.150 
21:05	58.9	58.9	58.9	73	50.3	0	0	---	0.00	30.150 
21:10	58.6	58.6	58.6	73	50.0	0	0	---	0.00	30.150 
21:15	58.3	58.3	58.3	74	50.0	0	1	68	0.00	30.151 
21:20	58.1	58.1	58.1	75	50.2	0	1	68	0.00	30.151 
21:25	57.8	57.8	57.8	76	50.3	0	1	68	0.00	30.151 
21:30	57.6	57.6	57.6	77	50.4	0	1	68	0.00	30.149 
21:35	57.6	57.6	57.6	77	50.4	0	2	68	0.00	30.149 
21:40	57.5	57.5	57.5	77	50.3	0	2	68	0.00	30.149 
21:45	57.3	57.3	57.3	77	50.1	0	0	---	0.00	30.150 
21:50	57.2	57.2	57.2	77	50.1	0	1	68	0.00	30.150 
21:55	57.0	57.0	57.0	78	50.2	0	1	68	0.00	30.150 
22:00	57.0	57.0	57.0	78	50.2	0	1	68	0.00	30.150 
22:05	56.7	56.7	56.7	79	50.3	0	1	68	0.00	30.150 
22:10	56.5	56.5	56.5	80	50.4	0	1	68	0.00	30.150 
22:15	56.2	56.2	56.2	80	50.1	0	2	68	0.00	30.147 
22:20	56.0	56.0	56.0	81	50.3	0	1	68	0.00	30.147 
22:25	55.7	55.7	55.7	81	50.0	0	0	---	0.00	30.147 
22:30	55.4	55.4	55.4	81	49.7	0	0	---	0.00	30.147 
22:35	55.1	55.1	55.1	81	49.4	0	0	---	0.00	30.147 
22:40	54.8	54.8	54.8	82	49.4	0	0	---	0.00	30.147 
22:45	54.7	54.7	54.7	83	49.6	0	0	---	0.00	30.148 
22:50	54.5	54.5	54.5	84	49.8	0	0	---	0.00	30.148 
22:55	54.4	54.4	54.4	84	49.7	0	0	---	0.00	30.148 
23:00	54.2	54.2	54.2	84	49.5	0	0	---	0.00	30.149 
23:05	53.9	53.9	53.9	84	49.2	0	0	---	0.00	30.149 
23:10	53.8	53.8	53.8	85	49.4	0	0	---	0.00	30.149 
23:15	53.8	53.8	53.8	85	49.4	0	0	---	0.00	30.136 
23:20	53.6	53.6	53.6	85	49.2	0	1	68	0.00	30.136 
23:25	53.6	53.6	53.6	85	49.2	0	0	---	0.00	30.136 
23:30	53.5	53.5	53.5	85	49.1	0	0	---	0.00	30.138 
23:35	53.3	53.3	53.3	85	48.9	0	0	---	0.00	30.138 
23:40	53.2	53.2	53.2	85	48.8	0	0	---	0.00	30.138 
23:45	52.9	52.9	52.9	86	48.8	0	0	---	0.00	30.150 
23:50	52.8	52.8	52.8	86	48.7	0	0	---	0.00	30.150 
23:55	52.6	52.6	52.6	87	48.8	0	0	---	0.00	30.150 

CoCoRaHS
IN-AL-39
A2 Web Hosting
Creative Commons License
GoDaddy
search engine by freefind advanced

loaded 2018-11-15 18:15:27 • last modified 2010-11-18 10:43:29
Privacy PolicyDisclaimer
• wx.awcolley.com is powered by PmWiki v.2002016 •
• all content (unless otherwise noted) © 2018 A W Colley